sensor_id;sensor_type;location;lat;lon;timestamp;P1;durP1;ratioP1;P2;durP2;ratioP2
18808;SDS011;9532;54.322;10.116;2022-12-01T00:01:08;27.10;;;17.40;;
18808;SDS011;9532;54.322;10.116;2022-12-01T00:03:38;25.53;;;16.90;;
18808;SDS011;9532;54.322;10.116;2022-12-01T00:06:06;25.40;;;16.40;;
18808;SDS011;9532;54.322;10.116;2022-12-01T00:08:36;24.43;;;17.03;;
18808;SDS011;9532;54.322;10.116;2022-12-01T00:11:04;23.37;;;16.23;;
18808;SDS011;9532;54.322;10.116;2022-12-01T00:13:32;25.43;;;17.73;;
18808;SDS011;9532;54.322;10.116;2022-12-01T00:16:07;22.63;;;16.17;;
18808;SDS011;9532;54.322;10.116;2022-12-01T00:18:35;22.57;;;15.60;;
18808;SDS011;9532;54.322;10.116;2022-12-01T00:21:04;23.73;;;16.53;;
18808;SDS011;9532;54.322;10.116;2022-12-01T00:23:32;23.00;;;15.97;;
18808;SDS011;9532;54.322;10.116;2022-12-01T00:26:01;25.83;;;16.17;;
18808;SDS011;9532;54.322;10.116;2022-12-01T00:28:29;23.87;;;16.40;;
18808;SDS011;9532;54.322;10.116;2022-12-01T00:30:56;22.70;;;16.23;;
18808;SDS011;9532;54.322;10.116;2022-12-01T00:33:24;23.67;;;16.80;;
18808;SDS011;9532;54.322;10.116;2022-12-01T00:35:57;23.17;;;16.20;;
18808;SDS011;9532;54.322;10.116;2022-12-01T00:38:25;22.43;;;15.30;;
18808;SDS011;9532;54.322;10.116;2022-12-01T00:40:53;24.03;;;16.43;;
18808;SDS011;9532;54.322;10.116;2022-12-01T00:43:20;24.93;;;16.77;;
18808;SDS011;9532;54.322;10.116;2022-12-01T00:45:48;24.93;;;16.67;;
18808;SDS011;9532;54.322;10.116;2022-12-01T00:48:15;23.43;;;16.00;;
18808;SDS011;9532;54.322;10.116;2022-12-01T00:50:42;22.17;;;15.50;;
18808;SDS011;9532;54.322;10.116;2022-12-01T00:53:12;23.40;;;15.83;;
18808;SDS011;9532;54.322;10.116;2022-12-01T00:55:39;22.43;;;15.80;;
18808;SDS011;9532;54.322;10.116;2022-12-01T00:58:06;22.90;;;15.83;;
18808;SDS011;9532;54.322;10.116;2022-12-01T01:00:33;21.47;;;15.77;;
18808;SDS011;9532;54.322;10.116;2022-12-01T01:03:02;25.10;;;16.50;;
18808;SDS011;9532;54.322;10.116;2022-12-01T01:05:30;21.73;;;15.20;;
18808;SDS011;9532;54.322;10.116;2022-12-01T01:08:00;24.07;;;15.70;;
18808;SDS011;9532;54.322;10.116;2022-12-01T01:10:33;23.17;;;15.57;;
18808;SDS011;9532;54.322;10.116;2022-12-01T01:13:03;25.33;;;16.23;;
18808;SDS011;9532;54.322;10.116;2022-12-01T01:15:30;23.70;;;15.60;;
18808;SDS011;9532;54.322;10.116;2022-12-01T01:17:58;20.47;;;15.23;;
18808;SDS011;9532;54.322;10.116;2022-12-01T01:20:26;23.03;;;15.03;;
18808;SDS011;9532;54.322;10.116;2022-12-01T01:22:54;22.33;;;15.40;;
18808;SDS011;9532;54.322;10.116;2022-12-01T01:25:21;22.53;;;15.87;;
18808;SDS011;9532;54.322;10.116;2022-12-01T01:27:50;22.97;;;15.73;;
18808;SDS011;9532;54.322;10.116;2022-12-01T01:30:18;22.33;;;15.70;;
18808;SDS011;9532;54.322;10.116;2022-12-01T01:32:45;20.90;;;15.40;;
18808;SDS011;9532;54.322;10.116;2022-12-01T01:35:13;21.30;;;15.33;;
18808;SDS011;9532;54.322;10.116;2022-12-01T01:37:40;23.93;;;15.40;;
18808;SDS011;9532;54.322;10.116;2022-12-01T01:40:07;23.13;;;15.77;;
18808;SDS011;9532;54.322;10.116;2022-12-01T01:42:35;20.43;;;14.87;;
18808;SDS011;9532;54.322;10.116;2022-12-01T01:45:10;21.20;;;15.37;;
18808;SDS011;9532;54.322;10.116;2022-12-01T01:47:46;20.97;;;14.70;;
18808;SDS011;9532;54.322;10.116;2022-12-01T01:50:17;19.77;;;14.53;;
18808;SDS011;9532;54.322;10.116;2022-12-01T01:52:47;22.60;;;15.57;;
18808;SDS011;9532;54.322;10.116;2022-12-01T01:55:17;21.27;;;15.17;;
18808;SDS011;9532;54.322;10.116;2022-12-01T01:57:45;23.43;;;16.67;;
18808;SDS011;9532;54.322;10.116;2022-12-01T02:00:15;20.87;;;14.67;;
18808;SDS011;9532;54.322;10.116;2022-12-01T02:02:45;21.43;;;15.33;;
18808;SDS011;9532;54.322;10.116;2022-12-01T02:05:16;20.07;;;14.37;;
18808;SDS011;9532;54.322;10.116;2022-12-01T02:07:45;20.37;;;14.53;;
18808;SDS011;9532;54.322;10.116;2022-12-01T02:10:13;21.80;;;15.20;;
18808;SDS011;9532;54.322;10.116;2022-12-01T02:12:53;22.40;;;15.57;;
18808;SDS011;9532;54.322;10.116;2022-12-01T02:15:32;20.43;;;14.27;;
18808;SDS011;9532;54.322;10.116;2022-12-01T02:18:06;20.40;;;14.63;;
18808;SDS011;9532;54.322;10.116;2022-12-01T02:20:53;22.17;;;14.83;;
18808;SDS011;9532;54.322;10.116;2022-12-01T02:23:43;21.03;;;15.20;;
18808;SDS011;9532;54.322;10.116;2022-12-01T02:26:41;20.60;;;14.43;;
18808;SDS011;9532;54.322;10.116;2022-12-01T02:29:21;20.33;;;14.97;;
18808;SDS011;9532;54.322;10.116;2022-12-01T02:32:14;19.43;;;14.73;;
18808;SDS011;9532;54.322;10.116;2022-12-01T02:34:53;20.83;;;15.10;;
18808;SDS011;9532;54.322;10.116;2022-12-01T02:37:26;22.77;;;15.10;;
18808;SDS011;9532;54.322;10.116;2022-12-01T02:39:58;23.07;;;15.07;;
18808;SDS011;9532;54.322;10.116;2022-12-01T02:42:32;21.23;;;14.43;;
18808;SDS011;9532;54.322;10.116;2022-12-01T02:45:18;21.47;;;14.53;;
18808;SDS011;9532;54.322;10.116;2022-12-01T02:47:56;21.77;;;14.83;;
18808;SDS011;9532;54.322;10.116;2022-12-01T02:50:27;21.40;;;14.90;;
18808;SDS011;9532;54.322;10.116;2022-12-01T02:52:57;19.83;;;14.00;;
18808;SDS011;9532;54.322;10.116;2022-12-01T02:55:26;20.73;;;14.77;;
18808;SDS011;9532;54.322;10.116;2022-12-01T02:57:53;21.67;;;15.03;;
18808;SDS011;9532;54.322;10.116;2022-12-01T03:00:20;20.50;;;14.40;;
18808;SDS011;9532;54.322;10.116;2022-12-01T03:02:53;19.90;;;14.13;;
18808;SDS011;9532;54.322;10.116;2022-12-01T03:05:35;20.63;;;15.03;;
18808;SDS011;9532;54.322;10.116;2022-12-01T03:08:12;20.23;;;15.03;;
18808;SDS011;9532;54.322;10.116;2022-12-01T03:10:50;20.03;;;14.07;;
18808;SDS011;9532;54.322;10.116;2022-12-01T03:13:20;20.20;;;14.80;;
18808;SDS011;9532;54.322;10.116;2022-12-01T03:15:59;20.53;;;14.83;;
18808;SDS011;9532;54.322;10.116;2022-12-01T03:18:35;18.73;;;13.53;;
18808;SDS011;9532;54.322;10.116;2022-12-01T03:21:05;22.80;;;14.40;;
18808;SDS011;9532;54.322;10.116;2022-12-01T03:23:36;20.37;;;14.50;;
18808;SDS011;9532;54.322;10.116;2022-12-01T03:26:08;19.67;;;14.07;;
18808;SDS011;9532;54.322;10.116;2022-12-01T03:28:41;20.87;;;13.97;;
18808;SDS011;9532;54.322;10.116;2022-12-01T03:31:13;19.53;;;14.00;;
18808;SDS011;9532;54.322;10.116;2022-12-01T03:33:46;17.97;;;13.07;;
18808;SDS011;9532;54.322;10.116;2022-12-01T03:36:18;19.33;;;13.87;;
18808;SDS011;9532;54.322;10.116;2022-12-01T03:38:48;18.37;;;13.57;;
18808;SDS011;9532;54.322;10.116;2022-12-01T03:41:25;19.60;;;13.70;;
18808;SDS011;9532;54.322;10.116;2022-12-01T03:43:58;17.93;;;12.97;;
18808;SDS011;9532;54.322;10.116;2022-12-01T03:46:32;20.80;;;14.33;;
18808;SDS011;9532;54.322;10.116;2022-12-01T03:49:09;18.10;;;13.53;;
18808;SDS011;9532;54.322;10.116;2022-12-01T03:51:39;17.97;;;13.27;;
18808;SDS011;9532;54.322;10.116;2022-12-01T03:54:15;17.63;;;12.93;;
18808;SDS011;9532;54.322;10.116;2022-12-01T03:56:47;19.90;;;14.03;;
18808;SDS011;9532;54.322;10.116;2022-12-01T03:59:19;18.50;;;13.03;;
18808;SDS011;9532;54.322;10.116;2022-12-01T04:01:49;20.20;;;14.43;;
18808;SDS011;9532;54.322;10.116;2022-12-01T04:04:18;19.30;;;13.47;;
18808;SDS011;9532;54.322;10.116;2022-12-01T04:06:46;18.83;;;12.67;;
18808;SDS011;9532;54.322;10.116;2022-12-01T04:09:16;17.40;;;12.63;;
18808;SDS011;9532;54.322;10.116;2022-12-01T04:11:43;18.37;;;13.40;;
18808;SDS011;9532;54.322;10.116;2022-12-01T04:14:39;18.13;;;13.10;;
18808;SDS011;9532;54.322;10.116;2022-12-01T04:17:06;18.07;;;13.03;;
18808;SDS011;9532;54.322;10.116;2022-12-01T04:19:35;18.23;;;13.07;;
18808;SDS011;9532;54.322;10.116;2022-12-01T04:22:02;17.63;;;12.87;;
18808;SDS011;9532;54.322;10.116;2022-12-01T04:24:29;19.60;;;13.50;;
18808;SDS011;9532;54.322;10.116;2022-12-01T04:26:57;20.07;;;13.97;;
18808;SDS011;9532;54.322;10.116;2022-12-01T04:29:24;21.63;;;13.20;;
18808;SDS011;9532;54.322;10.116;2022-12-01T04:31:51;19.23;;;13.73;;
18808;SDS011;9532;54.322;10.116;2022-12-01T04:34:18;18.60;;;13.37;;
18808;SDS011;9532;54.322;10.116;2022-12-01T04:36:47;19.53;;;12.80;;
18808;SDS011;9532;54.322;10.116;2022-12-01T04:39:14;18.07;;;12.87;;
18808;SDS011;9532;54.322;10.116;2022-12-01T04:41:42;17.50;;;12.93;;
18808;SDS011;9532;54.322;10.116;2022-12-01T04:44:09;18.60;;;13.10;;
18808;SDS011;9532;54.322;10.116;2022-12-01T04:46:36;19.17;;;13.33;;
18808;SDS011;9532;54.322;10.116;2022-12-01T04:49:04;19.07;;;13.47;;
18808;SDS011;9532;54.322;10.116;2022-12-01T04:51:31;18.47;;;13.07;;
18808;SDS011;9532;54.322;10.116;2022-12-01T04:54:01;20.90;;;13.40;;
18808;SDS011;9532;54.322;10.116;2022-12-01T04:56:29;19.57;;;13.67;;
18808;SDS011;9532;54.322;10.116;2022-12-01T04:58:57;16.53;;;12.60;;
18808;SDS011;9532;54.322;10.116;2022-12-01T05:01:24;17.33;;;12.50;;
18808;SDS011;9532;54.322;10.116;2022-12-01T05:03:51;17.83;;;13.00;;
18808;SDS011;9532;54.322;10.116;2022-12-01T05:06:19;18.43;;;12.73;;
18808;SDS011;9532;54.322;10.116;2022-12-01T05:08:48;19.20;;;13.67;;
18808;SDS011;9532;54.322;10.116;2022-12-01T05:11:18;18.20;;;12.80;;
18808;SDS011;9532;54.322;10.116;2022-12-01T05:13:46;17.10;;;12.87;;
18808;SDS011;9532;54.322;10.116;2022-12-01T05:16:15;18.43;;;12.87;;
18808;SDS011;9532;54.322;10.116;2022-12-01T05:18:46;17.77;;;12.60;;
18808;SDS011;9532;54.322;10.116;2022-12-01T05:21:14;18.70;;;12.53;;
18808;SDS011;9532;54.322;10.116;2022-12-01T05:23:41;17.63;;;12.67;;
18808;SDS011;9532;54.322;10.116;2022-12-01T05:26:09;17.80;;;13.27;;
18808;SDS011;9532;54.322;10.116;2022-12-01T05:28:38;15.60;;;12.00;;
18808;SDS011;9532;54.322;10.116;2022-12-01T05:31:05;16.67;;;12.67;;
18808;SDS011;9532;54.322;10.116;2022-12-01T05:33:33;17.13;;;12.20;;
18808;SDS011;9532;54.322;10.116;2022-12-01T05:36:00;15.83;;;12.00;;
18808;SDS011;9532;54.322;10.116;2022-12-01T05:38:27;16.37;;;12.20;;
18808;SDS011;9532;54.322;10.116;2022-12-01T05:40:54;17.50;;;12.30;;
18808;SDS011;9532;54.322;10.116;2022-12-01T05:43:22;18.23;;;12.87;;
18808;SDS011;9532;54.322;10.116;2022-12-01T05:45:52;17.27;;;12.43;;
18808;SDS011;9532;54.322;10.116;2022-12-01T05:48:20;17.13;;;12.60;;
18808;SDS011;9532;54.322;10.116;2022-12-01T05:50:47;17.77;;;12.43;;
18808;SDS011;9532;54.322;10.116;2022-12-01T05:53:14;17.30;;;12.20;;
18808;SDS011;9532;54.322;10.116;2022-12-01T05:55:42;17.70;;;12.77;;
18808;SDS011;9532;54.322;10.116;2022-12-01T05:58:09;19.13;;;13.43;;
18808;SDS011;9532;54.322;10.116;2022-12-01T06:00:37;23.17;;;15.17;;
18808;SDS011;9532;54.322;10.116;2022-12-01T06:03:06;21.13;;;14.77;;
18808;SDS011;9532;54.322;10.116;2022-12-01T06:05:33;22.57;;;15.10;;
18808;SDS011;9532;54.322;10.116;2022-12-01T06:08:01;24.90;;;15.50;;
18808;SDS011;9532;54.322;10.116;2022-12-01T06:10:28;21.47;;;14.33;;
18808;SDS011;9532;54.322;10.116;2022-12-01T06:12:55;21.63;;;14.27;;
18808;SDS011;9532;54.322;10.116;2022-12-01T06:15:23;24.60;;;14.93;;
18808;SDS011;9532;54.322;10.116;2022-12-01T06:17:50;28.13;;;14.43;;
18808;SDS011;9532;54.322;10.116;2022-12-01T06:20:19;20.13;;;13.77;;
18808;SDS011;9532;54.322;10.116;2022-12-01T06:22:47;20.53;;;12.93;;
18808;SDS011;9532;54.322;10.116;2022-12-01T06:25:14;27.40;;;14.00;;
18808;SDS011;9532;54.322;10.116;2022-12-01T06:27:41;22.27;;;13.20;;
18808;SDS011;9532;54.322;10.116;2022-12-01T06:30:09;20.00;;;12.93;;
18808;SDS011;9532;54.322;10.116;2022-12-01T06:32:36;21.53;;;13.33;;
18808;SDS011;9532;54.322;10.116;2022-12-01T06:35:04;22.20;;;12.43;;
18808;SDS011;9532;54.322;10.116;2022-12-01T06:37:34;25.93;;;13.20;;
18808;SDS011;9532;54.322;10.116;2022-12-01T06:40:01;22.50;;;13.87;;
18808;SDS011;9532;54.322;10.116;2022-12-01T06:42:28;25.30;;;11.80;;
18808;SDS011;9532;54.322;10.116;2022-12-01T06:44:56;22.30;;;12.50;;
18808;SDS011;9532;54.322;10.116;2022-12-01T06:47:24;23.73;;;12.97;;
18808;SDS011;9532;54.322;10.116;2022-12-01T06:49:52;24.00;;;11.80;;
18808;SDS011;9532;54.322;10.116;2022-12-01T06:52:19;19.47;;;12.00;;
18808;SDS011;9532;54.322;10.116;2022-12-01T06:54:48;23.30;;;13.10;;
18808;SDS011;9532;54.322;10.116;2022-12-01T06:57:15;21.87;;;13.47;;
18808;SDS011;9532;54.322;10.116;2022-12-01T06:59:42;33.30;;;15.17;;
18808;SDS011;9532;54.322;10.116;2022-12-01T07:02:10;26.07;;;15.10;;
18808;SDS011;9532;54.322;10.116;2022-12-01T07:04:37;27.30;;;15.83;;
18808;SDS011;9532;54.322;10.116;2022-12-01T07:07:04;26.77;;;14.87;;
18808;SDS011;9532;54.322;10.116;2022-12-01T07:09:32;28.37;;;15.53;;
18808;SDS011;9532;54.322;10.116;2022-12-01T07:12:01;28.17;;;14.87;;
18808;SDS011;9532;54.322;10.116;2022-12-01T07:14:29;22.93;;;15.03;;
18808;SDS011;9532;54.322;10.116;2022-12-01T07:16:56;23.57;;;14.20;;
18808;SDS011;9532;54.322;10.116;2022-12-01T07:19:24;34.60;;;15.50;;
18808;SDS011;9532;54.322;10.116;2022-12-01T07:21:52;25.23;;;14.23;;
18808;SDS011;9532;54.322;10.116;2022-12-01T07:24:19;23.60;;;14.33;;
18808;SDS011;9532;54.322;10.116;2022-12-01T07:26:46;23.57;;;13.60;;
18808;SDS011;9532;54.322;10.116;2022-12-01T07:29:15;24.80;;;14.40;;
18808;SDS011;9532;54.322;10.116;2022-12-01T07:31:42;23.50;;;14.23;;
18808;SDS011;9532;54.322;10.116;2022-12-01T07:34:10;21.73;;;13.40;;
18808;SDS011;9532;54.322;10.116;2022-12-01T07:36:38;24.37;;;13.70;;
18808;SDS011;9532;54.322;10.116;2022-12-01T07:39:06;23.47;;;13.33;;
18808;SDS011;9532;54.322;10.116;2022-12-01T07:41:34;20.40;;;13.63;;
18808;SDS011;9532;54.322;10.116;2022-12-01T07:44:01;20.87;;;13.53;;
18808;SDS011;9532;54.322;10.116;2022-12-01T07:46:31;22.33;;;13.13;;
18808;SDS011;9532;54.322;10.116;2022-12-01T07:48:58;22.57;;;13.07;;
18808;SDS011;9532;54.322;10.116;2022-12-01T07:51:25;21.03;;;12.97;;
18808;SDS011;9532;54.322;10.116;2022-12-01T07:53:53;21.17;;;12.67;;
18808;SDS011;9532;54.322;10.116;2022-12-01T07:56:21;25.70;;;13.53;;
18808;SDS011;9532;54.322;10.116;2022-12-01T07:58:49;24.23;;;13.30;;
18808;SDS011;9532;54.322;10.116;2022-12-01T08:01:17;21.60;;;13.47;;
18808;SDS011;9532;54.322;10.116;2022-12-01T08:03:48;22.90;;;13.10;;
18808;SDS011;9532;54.322;10.116;2022-12-01T08:06:16;23.47;;;13.53;;
18808;SDS011;9532;54.322;10.116;2022-12-01T08:08:44;19.67;;;13.57;;
18808;SDS011;9532;54.322;10.116;2022-12-01T08:11:13;22.53;;;13.80;;
18808;SDS011;9532;54.322;10.116;2022-12-01T08:13:42;20.47;;;13.03;;
18808;SDS011;9532;54.322;10.116;2022-12-01T08:16:10;20.23;;;13.20;;
18808;SDS011;9532;54.322;10.116;2022-12-01T08:18:39;24.07;;;12.93;;
18808;SDS011;9532;54.322;10.116;2022-12-01T08:21:10;19.60;;;13.23;;
18808;SDS011;9532;54.322;10.116;2022-12-01T08:23:38;23.73;;;12.53;;
18808;SDS011;9532;54.322;10.116;2022-12-01T08:26:09;21.63;;;13.03;;
18808;SDS011;9532;54.322;10.116;2022-12-01T08:28:38;21.57;;;13.00;;
18808;SDS011;9532;54.322;10.116;2022-12-01T08:31:06;19.70;;;13.03;;
18808;SDS011;9532;54.322;10.116;2022-12-01T08:33:35;26.67;;;13.17;;
18808;SDS011;9532;54.322;10.116;2022-12-01T08:36:02;19.87;;;12.53;;
18808;SDS011;9532;54.322;10.116;2022-12-01T08:38:32;22.87;;;12.70;;
18808;SDS011;9532;54.322;10.116;2022-12-01T08:41:00;18.67;;;12.57;;
18808;SDS011;9532;54.322;10.116;2022-12-01T08:43:27;20.63;;;13.10;;
18808;SDS011;9532;54.322;10.116;2022-12-01T08:45:56;20.33;;;13.63;;
18808;SDS011;9532;54.322;10.116;2022-12-01T08:48:24;20.73;;;13.37;;
18808;SDS011;9532;54.322;10.116;2022-12-01T08:50:59;22.23;;;13.27;;
18808;SDS011;9532;54.322;10.116;2022-12-01T08:53:27;24.40;;;15.40;;
18808;SDS011;9532;54.322;10.116;2022-12-01T08:55:56;21.50;;;14.83;;
18808;SDS011;9532;54.322;10.116;2022-12-01T08:58:25;29.17;;;15.73;;
18808;SDS011;9532;54.322;10.116;2022-12-01T09:01:01;27.90;;;18.47;;
18808;SDS011;9532;54.322;10.116;2022-12-01T09:03:33;27.90;;;17.83;;
18808;SDS011;9532;54.322;10.116;2022-12-01T09:06:02;26.63;;;17.73;;
18808;SDS011;9532;54.322;10.116;2022-12-01T09:08:32;26.73;;;16.60;;
18808;SDS011;9532;54.322;10.116;2022-12-01T09:11:02;26.00;;;17.13;;
18808;SDS011;9532;54.322;10.116;2022-12-01T09:13:32;30.63;;;16.10;;
18808;SDS011;9532;54.322;10.116;2022-12-01T09:16:01;25.90;;;16.70;;
18808;SDS011;9532;54.322;10.116;2022-12-01T09:18:30;27.47;;;16.07;;
18808;SDS011;9532;54.322;10.116;2022-12-01T09:20:58;27.97;;;16.00;;
18808;SDS011;9532;54.322;10.116;2022-12-01T09:23:25;24.43;;;16.17;;
18808;SDS011;9532;54.322;10.116;2022-12-01T09:25:53;29.00;;;16.33;;
18808;SDS011;9532;54.322;10.116;2022-12-01T09:28:21;26.53;;;15.83;;
18808;SDS011;9532;54.322;10.116;2022-12-01T09:30:49;26.70;;;16.20;;
18808;SDS011;9532;54.322;10.116;2022-12-01T09:33:15;23.87;;;15.50;;
18808;SDS011;9532;54.322;10.116;2022-12-01T09:35:43;23.40;;;15.53;;
18808;SDS011;9532;54.322;10.116;2022-12-01T09:38:10;26.00;;;16.67;;
18808;SDS011;9532;54.322;10.116;2022-12-01T09:40:38;22.10;;;15.23;;
18808;SDS011;9532;54.322;10.116;2022-12-01T09:43:10;22.90;;;15.30;;
18808;SDS011;9532;54.322;10.116;2022-12-01T09:45:53;22.63;;;15.63;;
18808;SDS011;9532;54.322;10.116;2022-12-01T09:48:25;23.53;;;15.33;;
18808;SDS011;9532;54.322;10.116;2022-12-01T09:50:56;24.40;;;14.53;;
18808;SDS011;9532;54.322;10.116;2022-12-01T09:53:24;24.07;;;13.83;;
18808;SDS011;9532;54.322;10.116;2022-12-01T09:55:53;25.63;;;15.03;;
18808;SDS011;9532;54.322;10.116;2022-12-01T09:58:21;22.17;;;14.00;;
18808;SDS011;9532;54.322;10.116;2022-12-01T10:00:53;24.20;;;14.00;;
18808;SDS011;9532;54.322;10.116;2022-12-01T10:03:23;30.87;;;14.37;;
18808;SDS011;9532;54.322;10.116;2022-12-01T10:05:59;34.33;;;15.03;;
18808;SDS011;9532;54.322;10.116;2022-12-01T10:08:30;32.43;;;15.77;;
18808;SDS011;9532;54.322;10.116;2022-12-01T10:11:03;26.67;;;14.63;;
18808;SDS011;9532;54.322;10.116;2022-12-01T10:13:34;38.33;;;15.00;;
18808;SDS011;9532;54.322;10.116;2022-12-01T10:16:05;29.53;;;15.57;;
18808;SDS011;9532;54.322;10.116;2022-12-01T10:18:38;24.83;;;14.57;;
18808;SDS011;9532;54.322;10.116;2022-12-01T10:21:18;24.57;;;14.10;;
18808;SDS011;9532;54.322;10.116;2022-12-01T10:24:00;27.70;;;14.10;;
18808;SDS011;9532;54.322;10.116;2022-12-01T10:26:43;28.20;;;14.10;;
18808;SDS011;9532;54.322;10.116;2022-12-01T10:29:18;24.97;;;13.57;;
18808;SDS011;9532;54.322;10.116;2022-12-01T10:31:54;31.77;;;14.30;;
18808;SDS011;9532;54.322;10.116;2022-12-01T10:34:23;26.23;;;13.90;;
18808;SDS011;9532;54.322;10.116;2022-12-01T10:36:53;39.17;;;14.53;;
18808;SDS011;9532;54.322;10.116;2022-12-01T10:39:22;25.60;;;13.00;;
18808;SDS011;9532;54.322;10.116;2022-12-01T10:41:54;20.93;;;13.30;;
18808;SDS011;9532;54.322;10.116;2022-12-01T10:44:28;24.60;;;14.82;;
18808;SDS011;9532;54.322;10.116;2022-12-01T10:46:57;26.83;;;14.33;;
18808;SDS011;9532;54.322;10.116;2022-12-01T10:49:33;26.40;;;13.50;;
18808;SDS011;9532;54.322;10.116;2022-12-01T10:52:02;26.60;;;13.27;;
18808;SDS011;9532;54.322;10.116;2022-12-01T10:54:34;22.37;;;13.97;;
18808;SDS011;9532;54.322;10.116;2022-12-01T10:57:02;27.03;;;14.87;;
18808;SDS011;9532;54.322;10.116;2022-12-01T10:59:32;24.63;;;13.70;;
18808;SDS011;9532;54.322;10.116;2022-12-01T11:02:04;26.57;;;13.53;;
18808;SDS011;9532;54.322;10.116;2022-12-01T11:04:41;29.63;;;15.00;;
18808;SDS011;9532;54.322;10.116;2022-12-01T11:07:14;27.50;;;13.73;;
18808;SDS011;9532;54.322;10.116;2022-12-01T11:09:44;26.73;;;14.40;;
18808;SDS011;9532;54.322;10.116;2022-12-01T11:12:14;22.67;;;14.17;;
18808;SDS011;9532;54.322;10.116;2022-12-01T11:14:46;22.67;;;13.77;;
18808;SDS011;9532;54.322;10.116;2022-12-01T11:17:23;28.50;;;14.53;;
18808;SDS011;9532;54.322;10.116;2022-12-01T11:20:20;24.17;;;13.77;;
18808;SDS011;9532;54.322;10.116;2022-12-01T11:25:58;22.30;;;13.07;;
18808;SDS011;9532;54.322;10.116;2022-12-01T11:28:28;22.03;;;12.93;;
18808;SDS011;9532;54.322;10.116;2022-12-01T11:30:57;27.47;;;12.77;;
18808;SDS011;9532;54.322;10.116;2022-12-01T11:33:28;20.70;;;12.97;;
18808;SDS011;9532;54.322;10.116;2022-12-01T11:35:59;20.00;;;12.60;;
18808;SDS011;9532;54.322;10.116;2022-12-01T11:38:29;23.90;;;13.33;;
18808;SDS011;9532;54.322;10.116;2022-12-01T11:40:58;32.57;;;12.90;;
18808;SDS011;9532;54.322;10.116;2022-12-01T11:43:27;21.57;;;12.83;;
18808;SDS011;9532;54.322;10.116;2022-12-01T11:45:58;28.47;;;13.37;;
18808;SDS011;9532;54.322;10.116;2022-12-01T11:48:30;22.40;;;12.53;;
18808;SDS011;9532;54.322;10.116;2022-12-01T11:51:02;25.33;;;14.30;;
18808;SDS011;9532;54.322;10.116;2022-12-01T11:53:32;21.97;;;13.37;;
18808;SDS011;9532;54.322;10.116;2022-12-01T11:56:17;24.47;;;13.70;;
18808;SDS011;9532;54.322;10.116;2022-12-01T11:58:48;25.70;;;14.37;;
18808;SDS011;9532;54.322;10.116;2022-12-01T12:01:19;26.93;;;13.57;;
18808;SDS011;9532;54.322;10.116;2022-12-01T12:03:57;23.83;;;14.30;;
18808;SDS011;9532;54.322;10.116;2022-12-01T12:06:35;21.87;;;13.27;;
18808;SDS011;9532;54.322;10.116;2022-12-01T12:09:14;25.57;;;13.40;;
18808;SDS011;9532;54.322;10.116;2022-12-01T12:11:52;23.07;;;13.07;;
18808;SDS011;9532;54.322;10.116;2022-12-01T12:14:36;26.83;;;14.40;;
18808;SDS011;9532;54.322;10.116;2022-12-01T12:17:18;26.23;;;13.93;;
18808;SDS011;9532;54.322;10.116;2022-12-01T12:22:59;23.83;;;14.93;;
18808;SDS011;9532;54.322;10.116;2022-12-01T12:25:44;23.70;;;15.23;;
18808;SDS011;9532;54.322;10.116;2022-12-01T12:28:23;23.00;;;14.50;;
18808;SDS011;9532;54.322;10.116;2022-12-01T12:31:14;23.70;;;13.97;;
18808;SDS011;9532;54.322;10.116;2022-12-01T12:34:01;25.83;;;14.40;;
18808;SDS011;9532;54.322;10.116;2022-12-01T12:36:49;25.93;;;13.60;;
18808;SDS011;9532;54.322;10.116;2022-12-01T12:39:35;29.97;;;14.27;;
18808;SDS011;9532;54.322;10.116;2022-12-01T12:42:17;29.70;;;13.33;;
18808;SDS011;9532;54.322;10.116;2022-12-01T12:44:54;25.27;;;13.23;;
18808;SDS011;9532;54.322;10.116;2022-12-01T12:47:32;23.93;;;13.70;;
18808;SDS011;9532;54.322;10.116;2022-12-01T12:50:16;21.00;;;13.47;;
18808;SDS011;9532;54.322;10.116;2022-12-01T12:52:50;32.43;;;13.93;;
18808;SDS011;9532;54.322;10.116;2022-12-01T12:55:25;22.30;;;12.37;;
18808;SDS011;9532;54.322;10.116;2022-12-01T12:57:55;25.67;;;13.07;;
18808;SDS011;9532;54.322;10.116;2022-12-01T13:00:27;26.23;;;13.03;;
18808;SDS011;9532;54.322;10.116;2022-12-01T13:02:55;23.07;;;12.87;;
18808;SDS011;9532;54.322;10.116;2022-12-01T13:05:30;24.03;;;12.93;;
18808;SDS011;9532;54.322;10.116;2022-12-01T13:08:05;22.93;;;12.67;;
18808;SDS011;9532;54.322;10.116;2022-12-01T13:10:39;23.10;;;12.70;;
18808;SDS011;9532;54.322;10.116;2022-12-01T13:13:16;23.80;;;13.07;;
18808;SDS011;9532;54.322;10.116;2022-12-01T13:15:49;18.57;;;12.50;;
18808;SDS011;9532;54.322;10.116;2022-12-01T13:18:25;21.70;;;12.37;;
18808;SDS011;9532;54.322;10.116;2022-12-01T13:20:56;20.07;;;12.13;;
18808;SDS011;9532;54.322;10.116;2022-12-01T13:23:24;20.73;;;11.93;;
18808;SDS011;9532;54.322;10.116;2022-12-01T13:25:55;18.90;;;11.53;;
18808;SDS011;9532;54.322;10.116;2022-12-01T13:28:25;21.83;;;12.07;;
18808;SDS011;9532;54.322;10.116;2022-12-01T13:31:01;17.80;;;11.47;;
18808;SDS011;9532;54.322;10.116;2022-12-01T13:33:29;22.70;;;12.27;;
18808;SDS011;9532;54.322;10.116;2022-12-01T13:35:59;18.13;;;11.73;;
18808;SDS011;9532;54.322;10.116;2022-12-01T13:38:27;18.87;;;11.93;;
18808;SDS011;9532;54.322;10.116;2022-12-01T13:41:12;20.87;;;11.57;;
18808;SDS011;9532;54.322;10.116;2022-12-01T13:43:51;20.50;;;10.73;;
18808;SDS011;9532;54.322;10.116;2022-12-01T13:46:24;25.20;;;12.13;;
18808;SDS011;9532;54.322;10.116;2022-12-01T13:48:54;23.77;;;11.43;;
18808;SDS011;9532;54.322;10.116;2022-12-01T13:51:23;20.23;;;11.03;;
18808;SDS011;9532;54.322;10.116;2022-12-01T13:54:01;22.47;;;11.37;;
18808;SDS011;9532;54.322;10.116;2022-12-01T13:56:57;22.17;;;11.10;;
18808;SDS011;9532;54.322;10.116;2022-12-01T14:00:00;23.10;;;11.13;;
18808;SDS011;9532;54.322;10.116;2022-12-01T14:02:32;23.37;;;11.60;;
18808;SDS011;9532;54.322;10.116;2022-12-01T14:08:19;21.63;;;11.10;;
18808;SDS011;9532;54.322;10.116;2022-12-01T14:10:50;30.40;;;11.33;;
18808;SDS011;9532;54.322;10.116;2022-12-01T14:13:21;20.13;;;11.40;;
18808;SDS011;9532;54.322;10.116;2022-12-01T14:15:54;16.83;;;10.67;;
18808;SDS011;9532;54.322;10.116;2022-12-01T14:18:28;16.90;;;10.57;;
18808;SDS011;9532;54.322;10.116;2022-12-01T14:20:58;18.17;;;11.00;;
18808;SDS011;9532;54.322;10.116;2022-12-01T14:23:29;17.90;;;10.20;;
18808;SDS011;9532;54.322;10.116;2022-12-01T14:26:09;16.33;;;10.97;;
18808;SDS011;9532;54.322;10.116;2022-12-01T14:34:44;18.17;;;10.23;;
18808;SDS011;9532;54.322;10.116;2022-12-01T14:37:16;15.27;;;9.77;;
18808;SDS011;9532;54.322;10.116;2022-12-01T14:39:46;16.73;;;10.80;;
18808;SDS011;9532;54.322;10.116;2022-12-01T14:42:23;16.23;;;10.47;;
18808;SDS011;9532;54.322;10.116;2022-12-01T14:45:14;17.20;;;9.97;;
18808;SDS011;9532;54.322;10.116;2022-12-01T14:47:48;16.60;;;9.87;;
18808;SDS011;9532;54.322;10.116;2022-12-01T14:50:21;13.40;;;9.73;;
18808;SDS011;9532;54.322;10.116;2022-12-01T14:52:52;17.70;;;10.37;;
18808;SDS011;9532;54.322;10.116;2022-12-01T14:55:22;20.23;;;10.90;;
18808;SDS011;9532;54.322;10.116;2022-12-01T14:57:59;17.37;;;10.70;;
18808;SDS011;9532;54.322;10.116;2022-12-01T15:00:29;15.33;;;9.93;;